Latest Weather Observations for Tarcoola

IDS60801

Issued at 10:35 pm CST Thursday 31 July 2014 (issued every 30 minutes, with the page automatically refreshed every 10 minutes)

About weather observations | Map of weather stations | Latest weather observations for SA | Other Formats
Station Details ID: 016098 Name: TARCOOLA AERO Lat: -30.71 Lon: 134.58 Height: 123.0 m
Data from the previous 72 hours. | See also: Recent months at Tarcoola
Date/Time
CST
Temp
°C
App
Temp
°C
Dew
Point
Rel
Hum
%
Delta-T
°C
Wind Press
QNH
hPa
Press
MSL
hPa
Rain
since 9 am
mm
Dir
 
Spd
km/h
Gust
km/h
Spd
kts
Gust
kts
31/10:30pm 11.0 5.6 6.4 73 2.2 WSW 24 33 13 18 1020.5 1020.5 0.0
31/10:00pm 11.4 5.7 6.7 73 2.2 WSW 26 37 14 20 1020.1 - 0.0
31/09:30pm 11.3 6.0 6.8 74 2.1 WSW 24 33 13 18 1019.8 1019.9 0.0
31/09:00pm 11.8 6.5 6.7 71 2.4 WSW 24 32 13 17 1019.3 1019.4 0.0
31/08:31pm 11.8 5.7 6.5 70 2.5 WSW 28 54 15 29 1019.2 - 0.0
31/08:30pm 12.1 6.5 7.2 72 2.4 WSW 26 54 14 29 1019.3 1019.4 0.0
31/08:00pm 13.1 7.1 6.9 66 3.0 SW 28 37 15 20 1018.8 - 0.0
31/07:30pm 14.6 6.5 5.4 54 4.4 SW 37 52 20 28 1018.0 1018.1 0.0
31/07:10pm 15.1 8.8 5.6 53 4.6 WSW 28 52 15 28 1017.5 - 0.0
31/07:00pm 15.2 9.5 6.5 56 4.3 WSW 26 39 14 21 1017.4 - 0.0
31/06:30pm 15.1 8.8 7.4 60 3.8 WSW 30 41 16 22 1016.9 1017.0 0.0
31/06:00pm 15.6 9.0 7.9 60 3.9 WSW 32 46 17 25 1016.4 1016.5 0.0
31/05:30pm 15.9 9.0 8.9 63 3.6 WSW 35 48 19 26 1016.0 1016.1 0.0
31/05:20pm 16.1 8.8 8.8 62 3.8 SW 37 56 20 30 1015.8 - 0.0
31/05:00pm 17.0 9.1 9.2 60 4.1 SW 41 54 22 29 1015.4 - 0.0
31/04:30pm 18.9 11.0 9.4 54 5.0 SW 41 63 22 34 1014.6 1014.7 0.0
31/04:11pm 21.3 14.0 5.6 36 7.9 WSW 33 52 18 28 1013.8 - 0.0
31/04:00pm 21.3 13.0 4.4 33 8.3 WSW 37 52 20 28 1013.7 - 0.0
31/03:30pm 21.3 12.7 2.6 29 8.8 WSW 37 56 20 30 1013.8 1013.8 0.0
31/03:03pm 21.8 13.9 2.0 27 9.3 W 33 52 18 28 1013.8 - 0.0
31/03:00pm 22.0 14.1 2.2 27 9.3 W 33 48 18 26 1013.8 1013.8 0.0
31/02:30pm 22.0 13.3 2.2 27 9.3 W 37 48 20 26 1013.9 1013.9 0.0
31/02:09pm 21.7 12.9 1.4 26 9.4 W 37 59 20 32 1013.7 - 0.0
31/02:00pm 22.0 13.4 2.7 28 9.2 W 37 50 20 27 1013.9 - 0.0
31/01:48pm 21.7 13.0 1.9 27 9.3 W 37 56 20 30 1013.9 - 0.0
31/01:30pm 21.8 12.7 2.0 27 9.3 W 39 56 21 30 1014.0 1014.0 0.0
31/01:11pm 21.6 12.9 2.3 28 9.1 W 37 56 20 30 1014.1 - 0.0
31/01:00pm 21.9 12.8 2.1 27 9.3 W 39 52 21 28 1014.0 - 0.0
31/12:30pm 21.6 12.5 1.8 27 9.2 W 39 52 21 28 1014.6 1014.7 0.0
31/12:18pm 21.3 12.2 1.6 27 9.1 WSW 39 57 21 31 1014.7 - 0.0
31/12:00pm 20.9 12.5 1.7 28 8.9 W 35 46 19 25 1015.0 1015.1 0.0
31/11:30am 20.7 12.9 1.6 28 8.8 W 32 44 17 24 1015.4 1015.5 0.0
31/11:00am 19.9 11.7 0.4 27 8.7 W 33 44 18 24 1015.5 - 0.0
31/10:30am 19.6 12.6 -0.4 26 8.8 WNW 26 39 14 21 1015.5 1015.6 0.0
31/10:00am 18.2 10.4 -0.6 28 8.1 NW 30 44 16 24 1015.3 - 0.0
31/09:50am 18.1 10.7 -0.7 28 8.1 NW 28 43 15 23 1015.2 - 0.0
31/09:30am 16.8 11.0 0.0 32 7.3 NNW 20 24 11 13 1015.2 1015.3 0.0
31/09:00am 14.5 8.4 0.7 39 5.9 NNW 22 26 12 14 1014.8 1014.9 0.0
31/08:30am 12.1 6.1 0.8 46 4.8 NNW 22 28 12 15 1014.9 1015.0 0.0
31/08:00am 9.2 3.2 0.9 56 3.4 N 22 26 12 14 1014.8 - 0.0
31/07:30am 7.8 2.3 0.8 61 2.8 N 19 22 10 12 1014.8 1014.9 0.0
31/07:00am 7.4 2.3 0.8 63 2.6 N 17 19 9 10 1014.8 - 0.0
31/06:30am 6.4 2.3 0.1 64 2.5 ENE 11 13 6 7 1014.9 1015.0 0.0
31/06:00am 7.0 3.3 0.2 62 2.7 ENE 9 11 5 6 1015.0 1015.1 0.0
31/05:30am 8.3 5.3 0.5 58 3.1 NE 6 11 3 6 1014.9 1015.0 0.0
31/05:00am 7.6 3.9 0.1 59 3.0 ENE 9 11 5 6 1015.0 - 0.0
31/04:30am 7.2 3.9 0.4 62 2.7 ENE 7 11 4 6 1015.0 1015.1 0.0
31/04:00am 9.4 4.2 0.3 53 3.7 NNW 17 20 9 11 1015.2 - 0.0
31/03:30am 8.8 4.0 0.3 55 3.4 N 15 19 8 10 1015.4 1015.5 0.0
31/03:00am 6.5 2.4 -0.5 61 2.7 N 11 13 6 7 1015.5 1015.6 0.0
31/02:30am 9.0 4.2 -0.1 53 3.6 N 15 15 8 8 1015.8 1015.9 0.0
31/02:00am 9.6 4.8 0.5 53 3.7 N 15 17 8 9 1016.2 - 0.0
31/01:30am 7.7 4.5 -0.3 57 3.1 N 6 7 3 4 1016.3 1016.4 0.0
31/01:00am 8.5 4.0 -0.3 54 3.5 N 13 15 7 8 1016.3 - 0.0
31/12:30am 8.0 3.9 -0.2 56 3.2 N 11 15 6 8 1016.4 1016.5 0.0
31/12:00am 8.4 4.3 -0.4 54 3.5 N 11 13 6 7 1016.6 1016.7 0.0
 
Date/Time
CST
Temp
°C
App
Temp
°C
Dew
Point
Rel
Hum
%
Delta-T
°C
Wind Press
QNH
hPa
Press
MSL
hPa
Rain
since 9 am
mm
Dir
 
Spd
km/h
Gust
km/h
Spd
kts
Gust
kts
30/11:30pm 10.4 6.0 0.2 49 4.2 N 13 15 7 8 1016.9 1017.0 0.0
30/11:00pm 9.2 5.0 -0.7 50 3.9 N 11 13 6 7 1017.2 - 0.0
30/10:30pm 10.8 6.6 -0.6 45 4.6 N 11 11 6 6 1017.6 1017.7 0.0
30/10:00pm 12.3 7.4 -0.2 42 5.2 N 15 17 8 9 1017.6 - 0.0
30/09:30pm 11.9 7.1 0.4 45 4.8 N 15 17 8 9 1017.8 1017.9 0.0
30/09:00pm 10.3 6.2 -0.5 47 4.3 N 11 13 6 7 1018.0 1018.1 0.0
30/08:30pm 11.7 8.3 -0.4 43 4.9 N 7 9 4 5 1018.0 1018.1 0.0
30/08:00pm 13.7 9.1 -0.7 37 6.0 NNW 13 13 7 7 1017.9 - 0.0
30/07:30pm 14.6 10.0 -1.1 34 6.5 NNW 13 15 7 8 1017.9 1018.0 0.0
30/07:00pm 15.7 11.1 -0.9 32 7.0 NNW 13 15 7 8 1017.9 - 0.0
30/06:30pm 17.1 12.5 -1.1 29 7.7 NNW 13 15 7 8 1017.8 1017.9 0.0
30/06:00pm 19.7 15.1 -0.9 25 8.9 NW 13 19 7 10 1018.0 1018.1 0.0
30/05:30pm 21.9 16.0 -0.8 22 10.1 NW 20 28 11 15 1017.9 1018.0 0.0
30/05:00pm 22.7 16.8 -0.7 21 10.5 NW 20 28 11 15 1017.8 - 0.0
30/04:30pm 23.0 16.3 -1.1 20 10.7 NW 24 32 13 17 1017.9 1018.0 0.0
30/04:00pm 23.3 16.6 -0.9 20 10.9 NW 24 35 13 19 1018.2 - 0.0
30/03:30pm 23.3 16.6 -0.9 20 10.8 NW 24 33 13 18 1018.5 1018.6 0.0
30/03:00pm 23.2 17.0 -0.3 21 10.6 NW 22 35 12 19 1018.8 1018.9 0.0
30/02:30pm 23.8 17.3 0.2 21 10.8 NW 24 37 13 20 1019.1 1019.2 0.0
30/02:00pm 23.5 16.9 1.8 24 10.3 NW 26 35 14 19 1019.4 - 0.0
30/01:30pm 22.4 16.5 2.0 26 9.6 NW 22 32 12 17 1020.0 1020.1 0.0
30/01:00pm 22.6 17.2 2.7 27 9.5 NW 20 30 11 16 1020.6 - 0.0
30/12:30pm 21.4 16.8 3.6 31 8.6 NW 17 28 9 15 1021.3 1021.4 0.0
30/12:00pm 20.8 16.6 4.0 33 8.1 NW 15 20 8 11 1022.0 1022.1 0.0
30/11:30am 20.0 15.9 4.1 35 7.6 NNW 15 22 8 12 1022.5 1022.6 0.0
30/11:00am 18.9 14.9 4.7 39 6.9 N 15 20 8 11 1022.9 - 0.0
30/10:30am 17.6 14.8 5.2 44 6.0 N 9 17 5 9 1023.2 1023.3 0.0
30/10:00am 16.0 13.6 5.3 49 5.1 N 7 11 4 6 1023.4 - 0.0
30/09:30am 13.8 10.2 5.2 56 4.0 N 13 15 7 8 1023.6 1023.7 0.0
30/09:00am 12.3 9.8 4.8 60 3.4 NNE 7 9 4 5 1023.8 1023.9 0.0
30/08:30am 9.3 7.5 3.7 68 2.4 N 2 6 1 3 1023.9 1024.0 0.0
30/08:00am 5.4 2.6 1.9 78 1.4 NNE 6 9 3 5 1023.5 - 0.0
30/07:30am 3.3 0.2 0.4 81 1.1 NNE 6 7 3 4 1023.3 1023.4 0.0
30/07:00am 3.2 0.1 0.3 81 1.1 NNE 6 7 3 4 1023.1 - 0.0
30/06:30am 3.4 -0.2 0.3 80 1.2 NE 9 9 5 5 1022.9 1023.0 0.0
30/06:00am 3.8 0.8 0.5 79 1.3 NNE 6 7 3 4 1022.8 1022.9 0.0
30/05:30am 4.0 0.4 0.7 79 1.3 NE 9 11 5 6 1022.6 1022.7 0.0
30/05:00am 3.9 0.7 0.6 79 1.3 NE 7 7 4 4 1022.5 - 0.0
30/04:30am 4.3 0.7 0.6 77 1.4 ENE 9 9 5 5 1022.5 1022.6 0.0
30/04:00am 4.9 1.4 1.2 77 1.5 NE 9 11 5 6 1022.6 - 0.0
30/03:30am 4.8 1.2 0.9 76 1.5 NE 9 11 5 6 1022.8 1022.9 0.0
30/03:00am 4.8 3.0 1.1 77 1.4 CALM 0 0 0 0 1022.9 1023.0 0.0
30/02:30am 5.1 3.3 1.2 76 1.5 CALM 0 0 0 0 1023.1 1023.2 0.0
30/02:00am 5.3 3.5 1.4 76 1.6 CALM 0 0 0 0 1023.4 - 0.0
30/01:30am 5.6 3.8 1.2 73 1.7 CALM 0 0 0 0 1023.6 1023.7 0.0
30/01:00am 6.3 4.6 1.6 72 1.9 CALM 0 0 0 0 1023.5 - 0.0
30/12:30am 6.6 4.8 1.5 70 2.1 CALM 0 0 0 0 1023.5 1023.6 0.0
30/12:00am 7.2 5.5 2.1 70 2.1 CALM 0 0 0 0 1023.4 1023.5 0.0
 
Date/Time
CST
Temp
°C
App
Temp
°C
Dew
Point
Rel
Hum
%
Delta-T
°C
Wind Press
QNH
hPa
Press
MSL
hPa
Rain
since 9 am
mm
Dir
 
Spd
km/h
Gust
km/h
Spd
kts
Gust
kts
29/11:30pm 7.5 5.9 2.2 69 2.2 CALM 0 0 0 0 1023.5 1023.6 0.0
29/11:00pm 7.8 6.1 2.1 67 2.4 CALM 0 2 0 1 1023.6 - 0.0
29/10:30pm 8.5 5.5 2.3 65 2.6 NE 7 7 4 4 1023.5 1023.6 0.0
29/10:00pm 9.2 6.3 2.8 64 2.7 ENE 7 9 4 5 1023.4 - 0.0
29/09:30pm 9.9 8.3 2.5 60 3.2 CALM 0 0 0 0 1023.4 1023.5 0.0
29/09:00pm 10.8 9.2 2.4 56 3.6 CALM 0 0 0 0 1023.2 1023.3 0.0
29/08:30pm 13.1 11.2 2.9 50 4.5 W 2 6 1 3 1023.0 1023.1 0.0
29/08:00pm 13.1 9.9 2.9 50 4.5 W 9 9 5 5 1022.8 - 0.0
29/07:30pm 13.8 10.2 3.0 48 4.8 W 11 11 6 6 1022.6 1022.7 0.0
29/07:00pm 15.0 11.8 2.9 44 5.5 W 9 9 5 5 1022.3 - 0.0
29/06:30pm 16.5 13.2 2.5 39 6.3 W 9 11 5 6 1022.0 1022.1 0.0
29/06:00pm 18.6 14.5 2.0 33 7.6 W 13 17 7 9 1021.8 1021.9 0.0
29/05:30pm 20.7 16.1 1.6 28 8.8 W 15 24 8 13 1021.5 1021.6 0.0
29/05:00pm 21.6 16.0 1.3 26 9.4 W 20 30 11 16 1021.3 - 0.0
29/04:30pm 21.9 16.5 1.5 26 9.4 W 19 28 10 15 1021.1 1021.1 0.0
29/04:00pm 22.1 16.7 2.2 27 9.4 W 20 28 11 15 1021.0 - 0.0
29/03:30pm 22.2 16.8 2.3 27 9.4 W 20 28 11 15 1021.1 1021.1 0.0
29/03:00pm 22.2 17.3 1.8 26 9.5 W 17 28 9 15 1021.2 1021.3 0.0
29/02:30pm 21.9 16.4 2.1 27 9.3 WNW 20 28 11 15 1021.5 1021.6 0.0
29/02:00pm 21.5 16.1 2.2 28 9.1 W 20 28 11 15 1021.6 - 0.0
29/01:30pm 21.2 15.4 2.5 29 8.8 WNW 22 33 12 18 1022.0 1022.1 0.0
29/01:00pm 20.8 15.1 2.6 30 8.6 WNW 22 32 12 17 1022.5 - 0.0
29/12:30pm 20.2 15.5 3.4 33 8.0 W 17 26 9 14 1022.9 1023.0 0.0
29/12:00pm 19.9 15.1 4.4 36 7.5 W 19 28 10 15 1023.6 1023.7 0.0
29/11:30am 19.4 14.4 4.7 38 7.1 W 20 28 11 15 1024.1 1024.2 0.0
29/11:00am 18.6 14.0 5.8 43 6.3 W 19 26 10 14 1024.3 - 0.0
29/10:30am 17.9 13.2 5.2 43 6.1 WNW 19 24 10 13 1024.2 1024.3 0.0
29/10:00am 17.0 13.3 6.5 50 5.2 WNW 15 20 8 11 1024.2 - 0.0
29/09:30am 15.1 13.3 7.2 59 3.9 NW 6 7 3 4 1024.1 1024.2 0.0
29/09:00am 12.0 11.2 6.3 68 2.7 CALM 0 4 0 2 1023.6 1023.7 0.0
29/08:30am 9.7 8.8 5.9 77 1.7 CALM 0 6 0 3 1023.2 1023.3 0.0
29/08:00am 6.2 3.5 3.7 84 1.1 NNE 7 9 4 5 1022.7 - 0.0
29/07:30am 5.3 2.6 3.5 88 0.8 NE 7 7 4 4 1022.7 1022.8 0.0
29/07:00am 5.5 2.7 3.2 85 1.0 ENE 7 7 4 4 1022.3 - 0.0
29/06:30am 5.9 3.2 3.6 85 1.0 ENE 7 9 4 5 1022.2 1022.3 0.0
29/06:00am 5.9 3.3 3.2 83 1.1 N 6 7 3 4 1022.1 1022.2 0.0
29/05:30am 6.5 3.8 3.5 81 1.3 NNE 7 7 4 4 1022.0 1022.1 0.0
29/05:00am 7.5 5.1 4.1 79 1.5 NNE 6 6 3 3 1021.9 - 0.0
29/04:30am 8.0 5.4 4.2 77 1.7 NNE 7 9 4 5 1021.6 1021.7 0.0
29/04:00am 8.5 5.6 4.9 78 1.6 NNE 9 11 5 6 1021.7 - 0.0
29/03:30am 8.2 7.0 4.4 77 1.7 CALM 0 0 0 0 1021.5 1021.6 0.0
29/03:00am 8.6 7.5 5.0 78 1.6 CALM 0 0 0 0 1021.7 1021.8 0.0
29/02:30am 8.5 7.3 4.7 77 1.7 CALM 0 4 0 2 1021.7 1021.8 0.0
29/02:00am 7.9 4.9 4.3 78 1.6 SW 9 9 5 5 1021.7 - 0.0
29/01:30am 7.6 6.2 3.5 75 1.8 CALM 0 0 0 0 1021.8 1021.9 0.0
29/01:00am 7.8 6.4 3.7 75 1.8 CALM 0 0 0 0 1021.6 - 0.0
29/12:30am 8.4 7.0 3.5 71 2.1 CALM 0 0 0 0 1021.5 1021.6 0.0
29/12:00am 9.0 6.9 3.8 70 2.3 WSW 4 6 2 3 1021.6 1021.7 0.0
 
Date/Time
CST
Temp
°C
App
Temp
°C
Dew
Point
Rel
Hum
%
Delta-T
°C
Wind Press
QNH
hPa
Press
MSL
hPa
Rain
since 9 am
mm
Dir
 
Spd
km/h
Gust
km/h
Spd
kts
Gust
kts
28/11:30pm 10.1 7.7 4.5 68 2.5 SW 6 7 3 4 1021.5 1021.6 0.0
28/11:00pm 10.6 8.0 4.3 65 2.8 SW 7 9 4 5 1021.5 - 0.0

Other Formats:

Comma delimited format used in spreadsheet applications
http://www.bom.gov.au/fwo/IDS60801/IDS60801.94655.axf

JavaScript Object Notation format (JSON) in row-major order
http://www.bom.gov.au/fwo/IDS60801/IDS60801.94655.json